Time;durP1;ratioP1;P1;durP2;ratioP2;P2;SDS_P1;SDS_P2;PMS_P1;PMS_P2;Temp;Humidity;BMP_temperature;BMP_pressure;BME280_temperature;BME280_humidity;BME280_pressure;Samples;Min_cycle;Max_cycle;Signal;HPM_P1;HPM_P2
2021/01/10 00:01:07;;;;;;;34.40;18.87;;;;;;;2.68;65.59;101172.56;1688699;84;21334;-65
2021/01/10 00:03:34;;;;;;;32.40;18.92;;;;;;;2.73;65.53;101167.94;1778657;79;21569;-64
2021/01/10 00:06:03;;;;;;;31.75;19.65;;;;;;;2.72;65.54;101172.67;1792563;80;21123;-65
2021/01/10 00:08:30;;;;;;;31.62;19.20;;;;;;;2.72;65.54;101179.17;1791631;80;21162;-64
2021/01/10 00:10:57;;;;;;;30.45;19.98;;;;;;;2.70;65.55;101177.80;1795811;79;21304;-65
2021/01/10 00:13:25;;;;;;;27.58;17.52;;;;;;;2.69;65.49;101174.73;1774041;79;21125;-65
2021/01/10 00:15:53;;;;;;;30.68;18.62;;;;;;;2.64;65.45;101178.93;1772164;81;21165;-65
2021/01/10 00:18:20;;;;;;;30.12;17.73;;;;;;;2.56;65.55;101181.25;1792463;79;21187;-65
2021/01/10 00:20:47;;;;;;;30.40;20.17;;;;;;;2.59;65.61;101180.48;1771963;81;21172;-65
2021/01/10 00:23:16;;;;;;;28.87;19.92;;;;;;;2.63;65.54;101176.73;1772009;81;21179;-65
2021/01/10 00:25:44;;;;;;;29.07;19.37;;;;;;;2.65;65.45;101191.96;1790864;79;21163;-65
2021/01/10 00:28:12;;;;;;;28.12;17.57;;;;;;;2.67;65.35;101192.00;1771827;81;21155;-64
2021/01/10 00:30:39;;;;;;;28.83;19.25;;;;;;;2.68;65.34;101189.47;1774899;79;21139;-65
2021/01/10 00:33:07;;;;;;;27.67;18.55;;;;;;;2.71;65.23;101194.30;1791371;80;21151;-65
2021/01/10 00:35:35;;;;;;;27.85;18.15;;;;;;;2.72;65.17;101191.73;1778588;80;21608;-65
2021/01/10 00:38:04;;;;;;;28.83;17.73;;;;;;;2.76;65.16;101187.54;1787145;80;21210;-66
2021/01/10 00:40:31;;;;;;;30.57;20.97;;;;;;;2.76;65.16;101194.04;1789273;80;21147;-63
2021/01/10 00:42:58;;;;;;;31.17;18.95;;;;;;;2.75;65.13;101191.84;1793995;80;21175;-63
2021/01/10 00:45:26;;;;;;;30.32;18.95;;;;;;;2.71;64.88;101189.97;1704918;84;21170;-63
2021/01/10 00:47:54;;;;;;;29.32;20.12;;;;;;;2.61;64.83;101191.82;1691518;84;21148;-63
2021/01/10 00:50:31;;;;;;;29.87;18.95;;;;;;;2.63;65.01;101185.83;1838332;77;22177;-62
2021/01/10 00:52:59;;;;;;;33.23;20.95;;;;;;;2.59;65.00;101193.05;1792887;80;21126;-62
2021/01/10 00:55:27;;;;;;;31.33;21.15;;;;;;;2.60;65.06;101185.72;1769325;80;21150;-62
2021/01/10 00:57:55;;;;;;;32.17;19.95;;;;;;;2.63;64.92;101191.03;1793255;80;21131;-62
2021/01/10 01:00:24;;;;;;;28.67;19.07;;;;;;;2.63;65.03;101194.06;1790712;80;21142;-64
2021/01/10 01:02:52;;;;;;;33.00;19.92;;;;;;;2.61;64.95;101187.49;1769000;80;21281;-64
2021/01/10 01:05:22;;;;;;;34.10;21.50;;;;;;;2.63;64.97;101195.36;1778146;80;21147;-64
2021/01/10 01:07:50;;;;;;;34.55;21.73;;;;;;;2.62;65.05;101188.39;1791033;80;21142;-64
2021/01/10 01:10:20;;;;;;;38.37;22.77;;;;;;;2.64;65.06;101190.63;1775135;79;21169;-64
2021/01/10 01:12:47;;;;;;;33.60;21.07;;;;;;;2.66;65.09;101188.93;1785008;80;21150;-64
2021/01/10 01:15:15;;;;;;;30.08;18.75;;;;;;;2.67;65.01;101181.20;1781452;80;21130;-63
2021/01/10 01:17:42;;;;;;;31.30;18.57;;;;;;;2.67;64.81;101191.59;1774733;80;21111;-63
2021/01/10 01:20:11;;;;;;;32.67;20.45;;;;;;;2.66;64.71;101187.62;1791071;80;21158;-64
2021/01/10 01:22:40;;;;;;;28.65;18.50;;;;;;;2.67;64.81;101182.50;1785779;80;21146;-63
2021/01/10 01:25:09;;;;;;;29.42;18.45;;;;;;;2.70;64.77;101186.03;1777758;80;21115;-64
2021/01/10 01:27:36;;;;;;;30.10;18.50;;;;;;;2.70;64.67;101184.30;1782665;79;21167;-63
2021/01/10 01:30:05;;;;;;;31.70;20.43;;;;;;;2.70;64.68;101184.30;1788449;80;21113;-64
2021/01/10 01:32:38;;;;;;;31.20;18.62;;;;;;;2.70;64.78;101185.60;1769313;80;21143;-64
2021/01/10 01:35:07;;;;;;;34.30;20.70;;;;;;;2.70;64.91;101192.09;1763759;80;21118;-64
2021/01/10 01:37:35;;;;;;;30.15;20.50;;;;;;;2.68;64.97;101197.66;1772251;80;21201;-65
2021/01/10 01:40:08;;;;;;;28.45;18.42;;;;;;;2.67;65.02;101192.00;1784428;80;21166;-64
2021/01/10 01:42:36;;;;;;;25.37;17.73;;;;;;;2.71;65.03;101190.41;1792307;80;21154;-65
2021/01/10 01:45:07;;;;;;;26.85;17.27;;;;;;;2.78;64.62;101197.58;1792990;80;21162;-65
2021/01/10 01:47:35;;;;;;;25.88;16.95;;;;;;;2.78;64.68;101194.55;1781448;80;21566;-62
2021/01/10 01:50:05;;;;;;;28.17;17.50;;;;;;;2.78;64.75;101198.44;1721592;81;21162;-62
2021/01/10 01:52:33;;;;;;;31.77;19.07;;;;;;;2.81;64.76;101203.74;1775409;81;21139;-62
2021/01/10 01:55:05;;;;;;;27.00;18.40;;;;;;;2.83;64.68;101209.87;1779919;81;21270;-62
2021/01/10 01:57:32;;;;;;;24.98;17.77;;;;;;;2.81;64.70;101207.64;1779122;81;21256;-63
2021/01/10 02:00:00;;;;;;;31.33;20.02;;;;;;;2.81;64.74;101215.45;1777563;81;21147;-63
2021/01/10 02:02:30;;;;;;;29.82;19.20;;;;;;;2.77;64.85;101216.61;1780181;80;21273;-63
2021/01/10 02:05:07;;;;;;;34.55;21.60;;;;;;;2.79;64.86;101215.81;1778798;80;21184;-62
2021/01/10 02:07:58;;;;;;;30.60;20.25;;;;;;;2.82;64.83;101209.41;1747603;81;21093;-64
2021/01/10 02:10:29;;;;;;;34.73;20.80;;;;;;;2.78;64.80;101210.14;1708298;84;21174;-64
2021/01/10 02:13:00;;;;;;;34.23;20.97;;;;;;;2.78;64.69;101204.08;1753969;80;21563;-64
2021/01/10 02:15:31;;;;;;;31.12;20.27;;;;;;;2.63;65.04;101205.75;1750577;81;21547;-64
2021/01/10 02:18:00;;;;;;;34.38;21.57;;;;;;;2.68;65.02;101210.66;1774140;81;21127;-63
2021/01/10 02:20:35;;;;;;;31.85;20.52;;;;;;;2.70;64.87;101209.00;1714108;82;21159;-64
2021/01/10 02:23:21;;;;;;;29.80;19.10;;;;;;;2.69;64.90;101215.03;1751875;81;21166;-64
2021/01/10 02:25:49;;;;;;;31.90;20.43;;;;;;;2.67;64.94;101216.69;1781547;80;21188;-63
2021/01/10 02:28:22;;;;;;;33.13;21.02;;;;;;;2.67;64.77;101213.69;1741843;82;21147;-63
2021/01/10 02:30:50;;;;;;;33.08;20.08;;;;;;;2.57;64.87;101214.64;1758033;81;21588;-64
2021/01/10 02:33:43;;;;;;;38.45;23.40;;;;;;;2.58;64.74;101215.11;1778784;81;21574;-63
2021/01/10 02:36:29;;;;;;;38.08;22.82;;;;;;;2.56;64.89;101215.47;1778629;81;21167;-63
2021/01/10 02:39:06;;;;;;;39.63;25.25;;;;;;;2.58;64.91;101217.70;1748687;80;21468;-63
2021/01/10 02:41:50;;;;;;;35.13;21.60;;;;;;;2.57;64.91;101212.91;1770060;80;21123;-63
2021/01/10 02:44:32;;;;;;;32.95;21.77;;;;;;;2.53;65.08;101213.63;1756705;81;21563;-63
2021/01/10 02:46:59;;;;;;;36.63;23.90;;;;;;;2.60;65.02;101216.05;1765827;81;21084;-63
2021/01/10 02:49:27;;;;;;;34.83;21.73;;;;;;;2.64;65.00;101213.59;1753221;81;21139;-63
2021/01/10 02:51:54;;;;;;;32.83;20.77;;;;;;;2.67;64.91;101218.89;1778273;80;21178;-63
2021/01/10 02:54:22;;;;;;;35.25;22.05;;;;;;;2.66;64.92;101218.83;1778623;80;21733;-64
2021/01/10 02:56:56;;;;;;;33.78;22.13;;;;;;;2.64;64.96;101218.79;1776599;80;21463;-63
2021/01/10 02:59:25;;;;;;;33.00;21.75;;;;;;;2.67;64.91;101218.89;1754064;81;21566;-63
2021/01/10 03:01:56;;;;;;;31.42;20.57;;;;;;;2.64;64.99;101219.22;1767667;80;21159;-63
2021/01/10 03:04:23;;;;;;;;;;;;;;;2.64;64.97;101218.79;1750979;82;21599;-63
2021/01/10 03:06:55;;;;;;;35.28;22.13;;;;;;;2.62;65.03;101223.05;1772094;81;20164;-63
2021/01/10 03:09:23;;;;;;;32.98;21.40;;;;;;;2.58;65.12;101219.01;1765754;81;21298;-63
2021/01/10 03:11:53;;;;;;;35.80;22.82;;;;;;;2.56;65.24;101228.47;1780180;80;21138;-63
2021/01/10 03:14:21;;;;;;;28.87;18.70;;;;;;;2.60;65.27;101227.74;1719002;82;21206;-63
2021/01/10 03:16:50;;;;;;;29.67;19.02;;;;;;;2.63;65.18;101234.34;1782525;80;21158;-63
2021/01/10 03:19:18;;;;;;;34.73;21.00;;;;;;;2.62;65.15;101227.38;1692005;83;21171;-62
2021/01/10 03:21:45;;;;;;;32.17;20.32;;;;;;;2.64;65.20;101232.22;1764516;80;21116;-63
2021/01/10 03:24:13;;;;;;;34.35;20.60;;;;;;;2.63;65.07;101233.91;1754357;81;21179;-63
2021/01/10 03:26:42;;;;;;;32.78;21.93;;;;;;;2.61;65.01;101232.98;1748163;82;21216;-63
2021/01/10 03:29:09;;;;;;;31.95;21.07;;;;;;;2.59;65.07;101233.34;1761180;81;21140;-63
2021/01/10 03:31:36;;;;;;;31.05;20.27;;;;;;;2.62;65.16;101228.68;1690206;83;21141;-63
2021/01/10 03:34:04;;;;;;;33.18;21.05;;;;;;;2.59;65.07;101228.14;1778813;81;21155;-63
2021/01/10 03:36:31;;;;;;;29.52;19.98;;;;;;;2.57;65.17;101219.41;1778546;80;21131;-63
2021/01/10 03:38:59;;;;;;;32.35;20.97;;;;;;;2.57;65.19;101230.23;1779378;80;21103;-62
2021/01/10 03:41:27;;;;;;;36.30;21.17;;;;;;;2.56;65.14;101228.03;1778836;80;21104;-63
2021/01/10 03:43:55;;;;;;;32.88;21.68;;;;;;;2.55;65.21;101234.06;1779000;81;21135;-64
2021/01/10 03:46:23;;;;;;;32.95;22.15;;;;;;;2.49;65.29;101223.05;1778995;80;21304;-63
2021/01/10 03:48:50;;;;;;;32.78;21.17;;;;;;;2.51;65.29;101226.98;1780201;80;21131;-63
2021/01/10 03:51:18;;;;;;;31.05;19.40;;;;;;;2.54;65.29;101234.89;1781637;80;21170;-62
2021/01/10 03:53:45;;;;;;;29.40;19.15;;;;;;;2.57;65.32;101234.13;1787492;79;21111;-62
2021/01/10 03:56:12;;;;;;;30.17;19.17;;;;;;;2.60;65.30;101236.41;1785964;80;21163;-62
2021/01/10 03:58:40;;;;;;;33.28;19.35;;;;;;;2.61;65.36;101238.61;1767410;81;21523;-62
2021/01/10 04:01:08;;;;;;;29.23;19.50;;;;;;;2.64;65.46;101235.69;1715351;83;21108;-64
2021/01/10 04:03:37;;;;;;;32.60;19.90;;;;;;;2.67;65.43;101237.09;1786945;80;21177;-63
2021/01/10 04:06:05;;;;;;;29.07;19.48;;;;;;;2.70;65.50;101231.53;1787039;80;21146;-63
2021/01/10 04:08:32;;;;;;;31.25;19.25;;;;;;;2.73;65.50;101231.20;1785519;80;21158;-62
2021/01/10 04:11:00;;;;;;;28.67;18.55;;;;;;;2.77;65.61;101229.61;1784601;80;21095;-63
2021/01/10 04:13:28;;;;;;;32.50;21.37;;;;;;;2.84;65.60;101230.28;1787158;80;21170;-63
2021/01/10 04:15:55;;;;;;;29.25;18.70;;;;;;;2.86;65.68;101233.81;1771644;80;21164;-63
2021/01/10 04:18:22;;;;;;;31.07;19.23;;;;;;;2.90;65.70;101231.75;1705441;83;21195;-63
2021/01/10 04:20:51;;;;;;;30.60;19.80;;;;;;;2.97;65.63;101232.86;1787222;80;21160;-64
2021/01/10 04:23:18;;;;;;;29.92;19.85;;;;;;;3.01;65.56;101226.93;1786550;80;21166;-64
2021/01/10 04:25:46;;;;;;;33.33;20.90;;;;;;;3.05;65.50;101234.40;1786340;80;21166;-63
2021/01/10 04:28:14;;;;;;;29.37;19.25;;;;;;;3.06;65.50;101238.38;1723493;82;21711;-63
2021/01/10 04:30:42;;;;;;;34.18;21.02;;;;;;;3.09;65.50;101238.88;1782181;79;21328;-62
2021/01/10 04:33:09;;;;;;;29.37;20.20;;;;;;;3.10;65.51;101241.94;1769541;80;21122;-63
2021/01/10 04:35:37;;;;;;;30.30;19.48;;;;;;;3.11;65.41;101246.31;1752774;82;21115;-63
2021/01/10 04:38:05;;;;;;;31.02;20.23;;;;;;;3.13;65.37;101242.04;1711778;83;21300;-64
2021/01/10 04:40:32;;;;;;;33.40;21.30;;;;;;;3.13;65.34;101245.94;1756033;82;21136;-63
2021/01/10 04:43:00;;;;;;;31.52;20.40;;;;;;;3.10;65.17;101248.44;1759444;80;21138;-64
2021/01/10 04:45:30;;;;;;;29.82;19.67;;;;;;;3.05;65.17;101252.20;1756023;81;21187;-63
2021/01/10 04:47:57;;;;;;;30.50;18.85;;;;;;;3.03;65.20;101249.97;1756414;82;21311;-64
2021/01/10 04:50:25;;;;;;;31.97;22.40;;;;;;;3.04;65.21;101256.05;1754072;80;21164;-64
2021/01/10 04:52:53;;;;;;;34.35;22.48;;;;;;;3.04;65.19;101254.74;1748814;81;21578;-63
2021/01/10 04:55:21;;;;;;;37.53;23.73;;;;;;;3.05;65.18;101253.91;1778478;80;21433;-63
2021/01/10 04:57:50;;;;;;;37.85;23.42;;;;;;;3.03;65.18;101256.48;1682650;84;21151;-64
2021/01/10 05:00:20;;;;;;;32.90;21.80;;;;;;;3.00;65.31;101260.67;1775970;80;21655;-63
2021/01/10 05:02:51;;;;;;;35.10;22.58;;;;;;;3.01;65.25;101259.44;1759510;80;21151;-64
2021/01/10 05:05:19;;;;;;;33.98;22.75;;;;;;;3.02;65.28;101264.21;1759583;80;21146;-63
2021/01/10 05:07:46;;;;;;;30.27;19.73;;;;;;;3.01;65.30;101262.44;1788950;79;21122;-63
2021/01/10 05:10:14;;;;;;;31.82;20.95;;;;;;;3.01;65.20;101258.54;1709382;82;21735;-64
2021/01/10 05:12:42;;;;;;;32.03;21.17;;;;;;;2.97;65.08;101258.88;1754614;82;21665;-64
2021/01/10 05:15:12;;;;;;;30.05;19.52;;;;;;;2.92;65.27;101261.30;1755430;82;21554;-63
2021/01/10 05:17:39;;;;;;;31.57;20.57;;;;;;;2.90;65.32;101262.96;1755817;82;21158;-63
2021/01/10 05:20:08;;;;;;;34.13;21.95;;;;;;;2.88;65.29;101260.72;1698577;82;21328;-62
2021/01/10 05:22:39;;;;;;;31.65;20.00;;;;;;;2.86;65.24;101265.02;1707086;84;21212;-63
2021/01/10 05:25:13;;;;;;;;;;;;;;;2.86;65.19;101268.92;1709238;84;21164;-63
2021/01/10 05:27:40;;;;;;;33.23;20.17;;;;;;;2.87;65.11;101280.19;1714579;83;20148;-63
2021/01/10 05:30:10;;;;;;;34.73;23.27;;;;;;;2.85;65.13;101277.55;1736115;82;21353;-63
2021/01/10 05:32:38;;;;;;;33.98;22.58;;;;;;;2.87;65.20;101278.89;1737009;82;21131;-63
2021/01/10 05:35:08;;;;;;;38.85;24.95;;;;;;;2.88;65.27;101286.73;1736572;82;21578;-63
2021/01/10 05:37:37;;;;;;;31.60;20.48;;;;;;;2.93;65.66;101286.47;1736342;83;21166;-63
2021/01/10 05:40:06;;;;;;;38.40;24.87;;;;;;;2.98;65.38;101290.11;1720230;83;21211;-63
2021/01/10 05:42:34;;;;;;;36.13;23.75;;;;;;;2.99;65.20;101294.92;1719765;83;21160;-63
2021/01/10 05:45:05;;;;;;;32.03;21.35;;;;;;;3.01;65.12;101296.25;1729946;82;21155;-64
2021/01/10 05:47:39;;;;;;;33.85;22.02;;;;;;;3.03;65.09;101295.89;1720303;83;21282;-65
2021/01/10 05:50:14;;;;;;;29.77;20.05;;;;;;;2.98;65.17;101293.15;1724134;83;21589;-64
2021/01/10 05:52:42;;;;;;;33.58;22.87;;;;;;;2.98;65.12;101295.75;1722300;83;21631;-65
2021/01/10 05:55:10;;;;;;;29.57;19.60;;;;;;;2.94;65.09;101302.55;1720959;82;21176;-62
2021/01/10 05:57:39;;;;;;;30.68;20.68;;;;;;;2.92;64.99;101308.55;1721485;83;21152;-62
2021/01/10 06:00:08;;;;;;;45.28;24.30;;;;;;;2.87;65.03;101304.46;1775204;80;21173;-65
2021/01/10 06:02:37;;;;;;;34.23;21.95;;;;;;;2.85;65.02;101309.16;1773406;80;21150;-63
2021/01/10 06:05:18;;;;;;;36.63;23.32;;;;;;;2.81;65.06;101310.35;1772688;80;21179;-63
2021/01/10 06:07:47;;;;;;;33.78;22.00;;;;;;;2.76;65.10;101313.63;1773201;80;21134;-65
2021/01/10 06:10:29;;;;;;;34.00;22.67;;;;;;;2.76;65.16;101318.84;1778132;80;21208;-65
2021/01/10 06:13:07;;;;;;;36.30;23.22;;;;;;;2.76;65.32;101311.91;1774031;80;21143;-64
2021/01/10 06:15:35;;;;;;;32.65;20.57;;;;;;;2.80;65.39;101312.91;1733043;82;21192;-63
2021/01/10 06:18:04;;;;;;;33.83;20.82;;;;;;;2.82;65.41;101318.63;1781622;80;21139;-63
2021/01/10 06:20:33;;;;;;;30.95;19.75;;;;;;;2.86;65.42;101319.62;1778074;80;21151;-63
2021/01/10 06:23:04;;;;;;;33.45;20.72;;;;;;;2.87;65.45;101316.16;1770684;79;21149;-65
2021/01/10 06:25:35;;;;;;;31.10;19.90;;;;;;;2.95;65.34;101322.52;1776819;80;21185;-65
2021/01/10 06:28:19;;;;;;;31.25;19.80;;;;;;;2.95;65.42;101319.92;1771402;80;21696;-63
2021/01/10 06:30:54;;;;;;;32.85;20.85;;;;;;;2.99;65.37;101323.53;1722868;82;21167;-65
2021/01/10 06:33:32;;;;;;;32.55;20.10;;;;;;;3.03;65.40;101318.00;1779644;81;21151;-65
2021/01/10 06:36:05;;;;;;;35.33;21.68;;;;;;;3.07;65.30;101315.97;1779301;81;21297;-65
2021/01/10 06:38:36;;;;;;;30.27;20.08;;;;;;;3.08;65.32;101316.04;1779557;81;21139;-65
2021/01/10 06:41:47;;;;;;;31.55;20.90;;;;;;;3.14;65.32;101317.95;1764511;80;21169;-64
2021/01/10 06:44:17;;;;;;;28.45;18.37;;;;;;;3.13;65.33;101320.95;1756362;82;21557;-66
2021/01/10 06:46:53;;;;;;;35.55;21.17;;;;;;;3.15;65.32;101321.42;1756234;82;21582;-66
2021/01/10 06:49:21;;;;;;;33.05;21.05;;;;;;;3.15;65.32;101325.32;1757066;80;21146;-66
2021/01/10 06:51:55;;;;;;;34.23;20.62;;;;;;;3.17;65.68;101326.27;1770313;80;21185;-66
2021/01/10 06:54:23;;;;;;;34.80;21.27;;;;;;;3.21;65.63;101328.13;1775218;80;21182;-67
2021/01/10 06:56:53;;;;;;;29.50;19.25;;;;;;;3.25;65.39;101324.80;1768328;81;21496;-66
2021/01/10 06:59:26;;;;;;;28.07;18.92;;;;;;;3.34;65.20;101329.41;1761414;80;21571;-66
2021/01/10 07:01:58;;;;;;;28.57;18.92;;;;;;;3.31;65.13;101328.05;1684484;85;21155;-65
2021/01/10 07:04:38;;;;;;;28.55;19.45;;;;;;;3.30;65.02;101324.97;1762117;81;21128;-67
2021/01/10 07:07:07;;;;;;;30.17;19.35;;;;;;;3.30;65.13;101331.05;1698644;83;21132;-66
2021/01/10 07:09:54;;;;;;;32.10;20.60;;;;;;;3.32;65.15;101335.88;1770294;80;21143;-66
2021/01/10 07:12:23;;;;;;;29.87;19.65;;;;;;;3.32;65.06;101335.88;1778780;81;21218;-67
2021/01/10 07:14:51;;;;;;;32.98;20.43;;;;;;;3.30;65.10;101347.95;1778810;81;21115;-67
2021/01/10 07:17:20;;;;;;;31.97;19.80;;;;;;;3.36;65.11;101345.96;1761153;81;21614;-66
2021/01/10 07:19:49;;;;;;;33.33;20.60;;;;;;;3.38;65.04;101350.41;1748389;82;21194;-67
2021/01/10 07:22:31;;;;;;;37.53;23.95;;;;;;;3.39;64.90;101350.88;1748178;82;21313;-66
2021/01/10 07:25:25;;;;;;;40.70;24.98;;;;;;;3.42;64.90;101350.97;1748962;81;21628;-66
2021/01/10 07:27:53;;;;;;;42.55;24.72;;;;;;;3.51;65.05;101356.89;1766614;81;21257;-65
2021/01/10 07:30:22;;;;;;;36.17;21.42;;;;;;;3.60;65.15;101349.78;1778701;81;21586;-66
2021/01/10 07:32:50;;;;;;;32.95;20.92;;;;;;;3.69;65.32;101355.28;1782527;80;21171;-65
2021/01/10 07:35:18;;;;;;;35.03;22.52;;;;;;;3.80;65.43;101358.22;1774968;79;21164;-67
2021/01/10 07:37:46;;;;;;;36.25;24.27;;;;;;;3.94;65.37;101360.38;1753176;81;21167;-65
2021/01/10 07:40:18;;;;;;;30.68;21.20;;;;;;;4.06;65.74;101358.55;1752358;81;21153;-66
2021/01/10 07:42:45;;;;;;;30.32;20.40;;;;;;;4.22;65.75;101355.98;1678184;85;21176;-67
2021/01/10 07:45:23;;;;;;;25.32;18.15;;;;;;;4.39;65.60;101359.11;1725423;81;21189;-67
2021/01/10 07:47:51;;;;;;;28.52;18.07;;;;;;;4.52;65.85;101357.30;1748302;82;21261;-66
2021/01/10 07:50:23;;;;;;;25.85;18.02;;;;;;;4.66;65.50;101352.46;1748187;82;21612;-65
2021/01/10 07:52:58;;;;;;;24.70;16.95;;;;;;;4.86;65.53;101355.61;1758743;81;21162;-64
2021/01/10 07:55:28;;;;;;;29.82;17.80;;;;;;;4.98;64.71;101360.70;1762997;81;21614;-67
2021/01/10 07:58:12;;;;;;;22.62;15.40;;;;;;;5.04;64.59;101355.24;1761436;81;21115;-67
2021/01/10 08:00:50;;;;;;;24.27;15.78;;;;;;;5.10;64.52;101354.51;1768700;81;21163;-65
2021/01/10 08:03:23;;;;;;;23.07;15.43;;;;;;;5.14;64.42;101351.14;1761850;81;21539;-66
2021/01/10 08:06:05;;;;;;;24.82;16.48;;;;;;;5.24;64.18;101355.30;1761322;81;21147;-68
2021/01/10 08:08:47;;;;;;;26.65;16.40;;;;;;;5.31;64.53;101351.56;1762775;81;21249;-67
2021/01/10 08:11:30;;;;;;;23.75;16.25;;;;;;;5.48;64.61;101353.72;1747578;81;21551;-66
2021/01/10 08:14:00;;;;;;;26.40;17.55;;;;;;;5.59;65.22;101353.52;1741421;82;21154;-67
2021/01/10 08:16:32;;;;;;;25.10;18.07;;;;;;;5.73;64.69;101361.72;1741102;81;21778;-67
2021/01/10 08:19:06;;;;;;;23.25;16.40;;;;;;;5.85;64.56;101362.41;1752830;81;21163;-67
2021/01/10 08:21:35;;;;;;;24.18;16.45;;;;;;;5.99;64.66;101373.17;1771549;80;21127;-67
2021/01/10 08:24:06;;;;;;;22.42;16.35;;;;;;;6.12;64.95;101367.82;1771820;81;21630;-66
2021/01/10 08:26:39;;;;;;;24.18;16.30;;;;;;;6.29;65.44;101378.64;1771812;81;21165;-67
2021/01/10 08:29:08;;;;;;;22.77;15.90;;;;;;;6.48;65.20;101367.27;1763658;81;21207;-67
2021/01/10 08:31:37;;;;;;;22.90;15.65;;;;;;;6.66;64.87;101363.70;1741076;81;21200;-67
2021/01/10 08:34:06;;;;;;;25.12;15.72;;;;;;;6.83;64.51;101368.39;1741449;82;21555;-66
2021/01/10 08:36:37;;;;;;;21.27;15.65;;;;;;;6.92;64.01;101369.88;1741405;81;21213;-65
2021/01/10 08:41:47;;;;;;;19.12;13.32;;;;;;;7.01;63.65;101357.38;1816052;78;22194;-65
2021/01/10 08:44:18;;;;;;;22.25;14.30;;;;;;;6.98;63.47;101363.45;1788347;80;21542;-65
2021/01/10 08:46:49;;;;;;;21.45;15.40;;;;;;;7.06;64.22;101367.95;1788114;80;21119;-64
2021/01/10 08:49:24;;;;;;;23.60;16.12;;;;;;;7.20;64.49;101368.19;1767879;80;21142;-64
2021/01/10 08:51:52;;;;;;;20.17;14.10;;;;;;;7.35;64.67;101368.87;1757151;82;21162;-66
2021/01/10 08:54:24;;;;;;;18.70;13.35;;;;;;;7.65;64.79;101361.95;1757231;81;21320;-61
2021/01/10 08:56:56;;;;;;;19.55;13.88;;;;;;;7.94;64.71;101357.56;1767446;80;21134;-64
2021/01/10 08:59:36;;;;;;;21.37;14.55;;;;;;;8.16;64.21;101356.11;1787255;80;21119;-65
2021/01/10 09:02:09;;;;;;;23.47;14.97;;;;;;;8.42;64.57;101351.61;1788590;80;21123;-60
2021/01/10 09:04:42;;;;;;;21.10;14.10;;;;;;;8.71;64.23;101352.44;1793567;80;21075;-61
2021/01/10 09:07:17;;;;;;;17.90;13.60;;;;;;;9.01;64.22;101347.05;1794396;80;21189;-60
2021/01/10 09:10:08;;;;;;;17.87;12.75;;;;;;;9.25;62.47;101342.91;1794572;80;21114;-65
2021/01/10 09:12:39;;;;;;;19.05;13.30;;;;;;;9.53;62.46;101336.09;1707889;84;21200;-61
2021/01/10 09:15:15;;;;;;;22.70;13.65;;;;;;;9.75;61.58;101338.89;1745324;81;21149;-64
2021/01/10 09:17:54;;;;;;;19.87;13.08;;;;;;;9.94;60.99;101335.94;1774865;81;21289;-61
2021/01/10 09:20:32;;;;;;;18.37;13.32;;;;;;;10.15;60.98;101336.03;1764020;81;21296;-61
2021/01/10 09:22:59;;;;;;;20.45;13.30;;;;;;;10.35;60.61;101327.80;1736918;82;21158;-61
2021/01/10 09:25:31;;;;;;;20.88;13.48;;;;;;;10.58;59.82;101328.80;1720829;82;21195;-63
2021/01/10 09:28:20;;;;;;;20.62;14.03;;;;;;;10.80;59.14;101325.77;1722025;82;21146;-66
2021/01/10 09:30:55;;;;;;;23.47;15.38;;;;;;;10.97;58.73;101323.16;1737483;81;21148;-68
2021/01/10 09:33:28;;;;;;;20.00;13.40;;;;;;;10.96;59.43;101322.27;1737844;81;21293;-69
2021/01/10 09:35:59;;;;;;;21.75;14.03;;;;;;;11.01;58.21;101317.02;1737556;81;21703;-66
2021/01/10 09:38:29;;;;;;;18.92;11.00;;;;;;;10.99;57.80;101322.27;1767663;81;21162;-66
2021/01/10 09:41:08;;;;;;;17.02;11.40;;;;;;;10.98;56.76;101311.30;1767709;81;21206;-69
2021/01/10 09:43:43;;;;;;;18.27;11.22;;;;;;;10.94;56.22;101301.63;1766793;81;21103;-67
2021/01/10 09:46:34;;;;;;;15.85;11.10;;;;;;;10.93;56.72;101296.38;1767435;81;21531;-66
2021/01/10 09:49:17;;;;;;;17.60;11.38;;;;;;;10.97;56.08;101297.68;1737433;82;21154;-69
2021/01/10 09:51:54;;;;;;;16.45;10.80;;;;;;;10.98;55.74;101298.58;1737487;81;21176;-68
2021/01/10 09:54:25;;;;;;;16.50;10.08;;;;;;;11.05;56.28;101298.13;1753568;81;21095;-67
2021/01/10 09:56:59;;;;;;;12.28;9.48;;;;;;;11.12;55.57;101299.89;1740034;81;21122;-65
2021/01/10 09:59:46;;;;;;;15.38;11.03;;;;;;;11.14;54.23;101299.45;1736840;83;21565;-66
2021/01/10 10:02:36;;;;;;;12.03;8.38;;;;;;;11.08;54.17;101296.81;1737415;81;21585;-68
2021/01/10 10:05:22;;;;;;;13.18;8.40;;;;;;;10.99;53.29;101291.98;1720503;83;21626;-66
2021/01/10 10:07:51;;;;;;;12.03;8.50;;;;;;;11.00;54.10;101284.97;1736653;83;21158;-68
2021/01/10 10:10:29;;;;;;;10.80;6.50;;;;;;;11.11;54.23;101288.92;1761704;80;21166;-67
2021/01/10 10:12:59;;;;;;;8.90;5.45;;;;;;;11.30;53.45;101283.20;1791759;80;21578;-66
2021/01/10 10:15:54;;;;;;;9.65;5.00;;;;;;;11.39;51.75;101283.62;1770061;80;21149;-69
2021/01/10 10:18:28;;;;;;;7.35;4.75;;;;;;;11.43;49.76;101284.05;1791873;80;21154;-69
2021/01/10 10:20:58;;;;;;;8.65;5.22;;;;;;;11.29;50.64;101284.94;1770911;80;21179;-69
2021/01/10 10:23:26;;;;;;;7.67;5.10;;;;;;;11.32;49.92;101285.39;1737903;81;21824;-67
2021/01/10 10:25:54;;;;;;;158.93;42.50;;;;;;;11.31;49.15;101277.91;1785343;80;21602;-70
2021/01/10 10:28:22;;;;;;;30.10;11.63;;;;;;;11.25;47.99;101284.95;1771864;80;21593;-70
2021/01/10 10:30:50;;;;;;;15.05;7.37;;;;;;;11.07;44.08;101281.44;1760652;81;21146;-66
2021/01/10 10:33:19;;;;;;;10.25;6.83;;;;;;;10.87;45.53;101282.73;1775345;80;21605;-70
2021/01/10 10:35:47;;;;;;;10.65;6.75;;;;;;;10.67;45.87;101280.98;1790572;80;21207;-70
2021/01/10 10:38:14;;;;;;;11.68;7.28;;;;;;;10.54;46.34;101284.45;1761584;80;21122;-66
2021/01/10 10:40:42;;;;;;;21.40;10.60;;;;;;;10.39;46.00;101282.20;1760787;81;21154;-66
2021/01/10 10:43:10;;;;;;;37.88;15.83;;;;;;;10.27;46.00;101279.53;1776768;80;21726;-68
2021/01/10 10:45:38;;;;;;;32.48;15.48;;;;;;;10.24;46.74;101282.15;1790015;80;21194;-69
2021/01/10 10:48:07;;;;;;;41.48;17.48;;;;;;;10.14;46.40;101277.30;1791948;80;21165;-66
2021/01/10 10:50:36;;;;;;;27.95;12.65;;;;;;;10.03;45.70;101279.00;1792034;80;21179;-69
2021/01/10 10:53:05;;;;;;;16.25;8.73;;;;;;;10.02;47.45;101284.67;1790518;80;21259;-67
2021/01/10 10:55:34;;;;;;;12.03;6.87;;;;;;;10.13;47.67;101280.80;1792260;80;21126;-69
2021/01/10 10:58:04;;;;;;;10.78;6.25;;;;;;;10.20;47.00;101280.38;1791993;80;21123;-66
2021/01/10 11:00:35;;;;;;;10.75;6.33;;;;;;;10.24;46.75;101279.06;1788639;80;21624;-67
2021/01/10 11:03:05;;;;;;;13.18;7.35;;;;;;;10.18;46.16;101279.03;1762236;80;21130;-70
2021/01/10 11:05:33;;;;;;;19.95;11.35;;;;;;;10.20;47.04;101285.19;1760526;81;21111;-70
2021/01/10 11:08:01;;;;;;;16.75;10.80;;;;;;;10.21;46.06;101282.13;1761087;80;21162;-66
2021/01/10 11:10:29;;;;;;;19.07;12.73;;;;;;;10.19;46.54;101282.11;1791886;80;21725;-69
2021/01/10 11:12:57;;;;;;;19.48;12.30;;;;;;;10.19;47.54;101287.38;1768343;80;21304;-66
2021/01/10 11:15:25;;;;;;;12.98;9.25;;;;;;;10.28;47.86;101290.50;1760530;81;21199;-67
2021/01/10 11:17:53;;;;;;;13.68;8.78;;;;;;;10.35;47.28;101290.97;1760645;81;21130;-67
2021/01/10 11:20:21;;;;;;;18.90;12.75;;;;;;;10.41;46.81;101294.08;1763044;80;21618;-69
2021/01/10 11:22:52;;;;;;;17.73;13.90;;;;;;;10.38;48.30;101290.08;1759300;81;21150;-67
2021/01/10 11:25:20;;;;;;;22.48;15.00;;;;;;;10.46;48.49;101296.70;1760589;81;21183;-69
2021/01/10 11:27:47;;;;;;;20.97;14.58;;;;;;;10.43;48.35;101289.70;1761280;81;21590;-67
2021/01/10 11:30:16;;;;;;;20.08;14.65;;;;;;;10.47;47.89;101294.52;1769058;80;21625;-69
2021/01/10 11:32:44;;;;;;;26.42;17.35;;;;;;;10.36;48.19;101291.41;1791804;80;21158;-70
2021/01/10 11:35:12;;;;;;;44.48;28.67;;;;;;;10.38;48.55;101292.71;1766896;80;21637;-67
2021/01/10 11:37:40;;;;;;;23.10;16.07;;;;;;;10.40;48.25;101291.00;1760561;81;21320;-69